sensor_id;sensor_type;location;lat;lon;timestamp;P1;durP1;ratioP1;P2;durP2;ratioP2
37593;SDS011;23441;50.856;6.076;2023-04-03T00:01:00;8.73;;;5.43;;
37593;SDS011;23441;50.856;6.076;2023-04-03T00:03:27;10.53;;;4.97;;
37593;SDS011;23441;50.856;6.076;2023-04-03T00:05:53;9.97;;;5.27;;
37593;SDS011;23441;50.856;6.076;2023-04-03T00:08:19;6.40;;;4.33;;
37593;SDS011;23441;50.856;6.076;2023-04-03T00:10:45;7.57;;;5.00;;
37593;SDS011;23441;50.856;6.076;2023-04-03T00:13:11;7.97;;;5.10;;
37593;SDS011;23441;50.856;6.076;2023-04-03T00:15:37;8.10;;;5.13;;
37593;SDS011;23441;50.856;6.076;2023-04-03T00:18:03;9.37;;;4.70;;
37593;SDS011;23441;50.856;6.076;2023-04-03T00:20:30;6.33;;;4.77;;
37593;SDS011;23441;50.856;6.076;2023-04-03T00:22:57;5.47;;;4.17;;
37593;SDS011;23441;50.856;6.076;2023-04-03T00:25:23;11.40;;;4.70;;
37593;SDS011;23441;50.856;6.076;2023-04-03T00:27:48;6.43;;;4.10;;
37593;SDS011;23441;50.856;6.076;2023-04-03T00:30:16;6.00;;;4.47;;
37593;SDS011;23441;50.856;6.076;2023-04-03T00:32:43;7.00;;;4.60;;
37593;SDS011;23441;50.856;6.076;2023-04-03T00:35:09;6.73;;;4.77;;
37593;SDS011;23441;50.856;6.076;2023-04-03T00:37:35;5.67;;;4.43;;
37593;SDS011;23441;50.856;6.076;2023-04-03T00:40:01;7.07;;;4.40;;
37593;SDS011;23441;50.856;6.076;2023-04-03T00:42:28;6.40;;;4.50;;
37593;SDS011;23441;50.856;6.076;2023-04-03T00:47:23;11.10;;;4.43;;
37593;SDS011;23441;50.856;6.076;2023-04-03T00:49:50;6.47;;;4.10;;
37593;SDS011;23441;50.856;6.076;2023-04-03T00:52:19;7.30;;;4.03;;
37593;SDS011;23441;50.856;6.076;2023-04-03T00:54:48;6.53;;;3.87;;
37593;SDS011;23441;50.856;6.076;2023-04-03T00:57:17;8.97;;;4.57;;
37593;SDS011;23441;50.856;6.076;2023-04-03T00:59:44;6.20;;;4.13;;
37593;SDS011;23441;50.856;6.076;2023-04-03T01:02:14;7.13;;;4.50;;
37593;SDS011;23441;50.856;6.076;2023-04-03T01:04:41;9.77;;;4.43;;
37593;SDS011;23441;50.856;6.076;2023-04-03T01:09:36;4.20;;;3.80;;
37593;SDS011;23441;50.856;6.076;2023-04-03T01:14:42;7.37;;;4.20;;
37593;SDS011;23441;50.856;6.076;2023-04-03T01:20:10;6.47;;;3.73;;
37593;SDS011;23441;50.856;6.076;2023-04-03T01:22:49;4.07;;;3.60;;
37593;SDS011;23441;50.856;6.076;2023-04-03T01:25:23;9.33;;;4.20;;
37593;SDS011;23441;50.856;6.076;2023-04-03T01:27:49;6.57;;;4.00;;
37593;SDS011;23441;50.856;6.076;2023-04-03T01:30:17;5.73;;;3.83;;
37593;SDS011;23441;50.856;6.076;2023-04-03T01:32:44;9.77;;;4.13;;
37593;SDS011;23441;50.856;6.076;2023-04-03T01:35:10;6.93;;;4.17;;
37593;SDS011;23441;50.856;6.076;2023-04-03T01:37:36;10.50;;;4.53;;
37593;SDS011;23441;50.856;6.076;2023-04-03T01:40:02;5.53;;;4.20;;
37593;SDS011;23441;50.856;6.076;2023-04-03T01:42:28;5.07;;;3.87;;
37593;SDS011;23441;50.856;6.076;2023-04-03T01:44:54;6.87;;;4.40;;
37593;SDS011;23441;50.856;6.076;2023-04-03T01:47:20;11.50;;;4.70;;
37593;SDS011;23441;50.856;6.076;2023-04-03T01:49:46;4.27;;;3.50;;
37593;SDS011;23441;50.856;6.076;2023-04-03T01:52:12;5.80;;;4.47;;
37593;SDS011;23441;50.856;6.076;2023-04-03T01:54:38;8.10;;;4.60;;
37593;SDS011;23441;50.856;6.076;2023-04-03T01:57:03;8.23;;;4.73;;
37593;SDS011;23441;50.856;6.076;2023-04-03T01:59:29;8.93;;;4.67;;
37593;SDS011;23441;50.856;6.076;2023-04-03T02:01:55;7.57;;;4.63;;
37593;SDS011;23441;50.856;6.076;2023-04-03T02:04:21;6.80;;;4.20;;
37593;SDS011;23441;50.856;6.076;2023-04-03T02:06:46;9.23;;;4.63;;
37593;SDS011;23441;50.856;6.076;2023-04-03T02:09:12;11.37;;;4.47;;
37593;SDS011;23441;50.856;6.076;2023-04-03T02:11:38;8.17;;;4.77;;
37593;SDS011;23441;50.856;6.076;2023-04-03T02:14:03;7.63;;;4.80;;
37593;SDS011;23441;50.856;6.076;2023-04-03T02:16:29;5.33;;;4.73;;
37593;SDS011;23441;50.856;6.076;2023-04-03T02:18:55;10.70;;;4.93;;
37593;SDS011;23441;50.856;6.076;2023-04-03T02:21:22;8.03;;;5.03;;
37593;SDS011;23441;50.856;6.076;2023-04-03T02:23:47;13.37;;;5.17;;
37593;SDS011;23441;50.856;6.076;2023-04-03T02:26:14;7.50;;;5.30;;
37593;SDS011;23441;50.856;6.076;2023-04-03T02:28:40;8.33;;;5.07;;
37593;SDS011;23441;50.856;6.076;2023-04-03T02:31:07;9.97;;;5.90;;
37593;SDS011;23441;50.856;6.076;2023-04-03T02:33:33;9.80;;;5.47;;
37593;SDS011;23441;50.856;6.076;2023-04-03T02:35:59;7.97;;;5.20;;
37593;SDS011;23441;50.856;6.076;2023-04-03T02:38:25;10.00;;;6.30;;
37593;SDS011;23441;50.856;6.076;2023-04-03T02:40:51;7.33;;;5.90;;
37593;SDS011;23441;50.856;6.076;2023-04-03T02:43:17;7.77;;;5.27;;
37593;SDS011;23441;50.856;6.076;2023-04-03T02:45:43;7.90;;;5.77;;
37593;SDS011;23441;50.856;6.076;2023-04-03T02:48:09;9.03;;;6.43;;
37593;SDS011;23441;50.856;6.076;2023-04-03T02:50:34;13.90;;;6.73;;
37593;SDS011;23441;50.856;6.076;2023-04-03T02:53:00;8.67;;;6.47;;
37593;SDS011;23441;50.856;6.076;2023-04-03T02:55:26;8.60;;;6.00;;
37593;SDS011;23441;50.856;6.076;2023-04-03T02:57:51;12.40;;;6.33;;
37593;SDS011;23441;50.856;6.076;2023-04-03T03:00:17;8.30;;;6.03;;
37593;SDS011;23441;50.856;6.076;2023-04-03T03:02:43;10.07;;;6.90;;
37593;SDS011;23441;50.856;6.076;2023-04-03T03:05:09;11.30;;;7.17;;
37593;SDS011;23441;50.856;6.076;2023-04-03T03:07:35;9.87;;;7.33;;
37593;SDS011;23441;50.856;6.076;2023-04-03T03:10:00;10.37;;;7.30;;
37593;SDS011;23441;50.856;6.076;2023-04-03T03:12:26;16.03;;;7.47;;
37593;SDS011;23441;50.856;6.076;2023-04-03T03:14:51;10.83;;;7.63;;
37593;SDS011;23441;50.856;6.076;2023-04-03T03:17:17;11.57;;;7.70;;
37593;SDS011;23441;50.856;6.076;2023-04-03T03:19:43;15.43;;;7.87;;
37593;SDS011;23441;50.856;6.076;2023-04-03T03:22:10;8.97;;;7.03;;
37593;SDS011;23441;50.856;6.076;2023-04-03T03:24:36;9.27;;;7.30;;
37593;SDS011;23441;50.856;6.076;2023-04-03T03:27:02;9.77;;;7.60;;
37593;SDS011;23441;50.856;6.076;2023-04-03T03:29:27;10.73;;;7.30;;
37593;SDS011;23441;50.856;6.076;2023-04-03T03:31:53;10.53;;;8.00;;
37593;SDS011;23441;50.856;6.076;2023-04-03T03:34:18;15.47;;;8.83;;
37593;SDS011;23441;50.856;6.076;2023-04-03T03:36:44;10.13;;;7.53;;
37593;SDS011;23441;50.856;6.076;2023-04-03T03:39:10;11.10;;;7.77;;
37593;SDS011;23441;50.856;6.076;2023-04-03T03:41:35;11.40;;;8.33;;
37593;SDS011;23441;50.856;6.076;2023-04-03T03:44:01;10.53;;;7.50;;
37593;SDS011;23441;50.856;6.076;2023-04-03T03:46:27;12.10;;;8.23;;
37593;SDS011;23441;50.856;6.076;2023-04-03T03:48:52;16.23;;;9.20;;
37593;SDS011;23441;50.856;6.076;2023-04-03T03:51:18;11.47;;;8.97;;
37593;SDS011;23441;50.856;6.076;2023-04-03T03:53:44;15.27;;;8.83;;
37593;SDS011;23441;50.856;6.076;2023-04-03T03:56:09;13.13;;;8.43;;
37593;SDS011;23441;50.856;6.076;2023-04-03T03:58:35;12.93;;;8.93;;
37593;SDS011;23441;50.856;6.076;2023-04-03T04:01:01;15.40;;;9.27;;
37593;SDS011;23441;50.856;6.076;2023-04-03T04:03:28;13.00;;;8.40;;
37593;SDS011;23441;50.856;6.076;2023-04-03T04:05:54;12.77;;;8.53;;
37593;SDS011;23441;50.856;6.076;2023-04-03T04:08:20;13.77;;;9.10;;
37593;SDS011;23441;50.856;6.076;2023-04-03T04:10:45;15.27;;;9.23;;
37593;SDS011;23441;50.856;6.076;2023-04-03T04:13:11;13.33;;;8.73;;
37593;SDS011;23441;50.856;6.076;2023-04-03T04:15:36;14.17;;;9.10;;
37593;SDS011;23441;50.856;6.076;2023-04-03T04:18:02;12.63;;;8.80;;
37593;SDS011;23441;50.856;6.076;2023-04-03T04:20:28;12.03;;;8.57;;
37593;SDS011;23441;50.856;6.076;2023-04-03T04:22:54;13.37;;;9.23;;
37593;SDS011;23441;50.856;6.076;2023-04-03T04:25:20;15.10;;;9.33;;
37593;SDS011;23441;50.856;6.076;2023-04-03T04:27:45;18.60;;;10.83;;
37593;SDS011;23441;50.856;6.076;2023-04-03T04:30:11;15.10;;;10.63;;
37593;SDS011;23441;50.856;6.076;2023-04-03T04:32:37;16.97;;;11.57;;
37593;SDS011;23441;50.856;6.076;2023-04-03T04:35:03;17.07;;;10.90;;
37593;SDS011;23441;50.856;6.076;2023-04-03T04:37:29;21.23;;;11.50;;
37593;SDS011;23441;50.856;6.076;2023-04-03T04:39:55;17.17;;;11.50;;
37593;SDS011;23441;50.856;6.076;2023-04-03T04:42:21;16.80;;;11.73;;
37593;SDS011;23441;50.856;6.076;2023-04-03T04:44:46;14.33;;;11.07;;
37593;SDS011;23441;50.856;6.076;2023-04-03T04:47:12;20.23;;;11.97;;
37593;SDS011;23441;50.856;6.076;2023-04-03T04:49:37;18.53;;;11.97;;
37593;SDS011;23441;50.856;6.076;2023-04-03T04:52:03;17.93;;;12.27;;
37593;SDS011;23441;50.856;6.076;2023-04-03T04:54:29;19.33;;;11.90;;
37593;SDS011;23441;50.856;6.076;2023-04-03T04:56:54;18.20;;;12.20;;
37593;SDS011;23441;50.856;6.076;2023-04-03T04:59:20;19.87;;;11.33;;
37593;SDS011;23441;50.856;6.076;2023-04-03T05:01:46;16.47;;;10.97;;
37593;SDS011;23441;50.856;6.076;2023-04-03T05:04:11;16.90;;;10.70;;
37593;SDS011;23441;50.856;6.076;2023-04-03T05:06:40;17.50;;;11.17;;
37593;SDS011;23441;50.856;6.076;2023-04-03T05:09:05;14.80;;;10.33;;
37593;SDS011;23441;50.856;6.076;2023-04-03T05:11:31;14.33;;;10.40;;
37593;SDS011;23441;50.856;6.076;2023-04-03T05:13:57;16.00;;;11.30;;
37593;SDS011;23441;50.856;6.076;2023-04-03T05:16:23;13.13;;;10.07;;
37593;SDS011;23441;50.856;6.076;2023-04-03T05:18:49;22.07;;;10.50;;
37593;SDS011;23441;50.856;6.076;2023-04-03T05:21:15;16.10;;;11.20;;
37593;SDS011;23441;50.856;6.076;2023-04-03T05:23:43;18.83;;;11.10;;
37593;SDS011;23441;50.856;6.076;2023-04-03T05:26:09;16.93;;;10.90;;
37593;SDS011;23441;50.856;6.076;2023-04-03T05:28:34;13.63;;;10.53;;
37593;SDS011;23441;50.856;6.076;2023-04-03T05:31:00;16.27;;;11.10;;
37593;SDS011;23441;50.856;6.076;2023-04-03T05:33:26;14.80;;;9.93;;
37593;SDS011;23441;50.856;6.076;2023-04-03T05:35:52;14.80;;;11.30;;
37593;SDS011;23441;50.856;6.076;2023-04-03T05:38:19;16.60;;;11.27;;
37593;SDS011;23441;50.856;6.076;2023-04-03T05:40:45;15.33;;;11.10;;
37593;SDS011;23441;50.856;6.076;2023-04-03T05:43:12;20.23;;;11.30;;
37593;SDS011;23441;50.856;6.076;2023-04-03T05:45:37;17.17;;;11.47;;
37593;SDS011;23441;50.856;6.076;2023-04-03T05:48:03;14.43;;;11.33;;
37593;SDS011;23441;50.856;6.076;2023-04-03T05:50:29;15.27;;;10.97;;
37593;SDS011;23441;50.856;6.076;2023-04-03T05:52:55;17.43;;;10.93;;
37593;SDS011;23441;50.856;6.076;2023-04-03T05:55:23;15.17;;;11.03;;
37593;SDS011;23441;50.856;6.076;2023-04-03T05:57:49;17.53;;;11.20;;
37593;SDS011;23441;50.856;6.076;2023-04-03T06:00:15;13.03;;;10.37;;
37593;SDS011;23441;50.856;6.076;2023-04-03T06:02:41;17.73;;;10.97;;
37593;SDS011;23441;50.856;6.076;2023-04-03T06:05:08;14.63;;;10.10;;
37593;SDS011;23441;50.856;6.076;2023-04-03T06:07:34;16.97;;;9.47;;
37593;SDS011;23441;50.856;6.076;2023-04-03T06:10:00;10.93;;;7.90;;
37593;SDS011;23441;50.856;6.076;2023-04-03T06:12:27;12.07;;;8.90;;
37593;SDS011;23441;50.856;6.076;2023-04-03T06:14:54;17.57;;;9.40;;
37593;SDS011;23441;50.856;6.076;2023-04-03T06:17:20;13.30;;;9.03;;
37593;SDS011;23441;50.856;6.076;2023-04-03T06:19:46;14.83;;;9.33;;
37593;SDS011;23441;50.856;6.076;2023-04-03T06:22:12;14.60;;;9.30;;
37593;SDS011;23441;50.856;6.076;2023-04-03T06:24:38;13.27;;;8.53;;
37593;SDS011;23441;50.856;6.076;2023-04-03T06:27:05;13.20;;;8.57;;
37593;SDS011;23441;50.856;6.076;2023-04-03T06:29:31;13.93;;;8.75;;
37593;SDS011;23441;50.856;6.076;2023-04-03T06:31:56;16.23;;;7.90;;
37593;SDS011;23441;50.856;6.076;2023-04-03T06:34:22;12.45;;;7.25;;
37593;SDS011;23441;50.856;6.076;2023-04-03T06:36:48;10.18;;;6.63;;
37593;SDS011;23441;50.856;6.076;2023-04-03T06:39:18;9.00;;;6.55;;
37593;SDS011;23441;50.856;6.076;2023-04-03T06:41:47;9.43;;;6.35;;
37593;SDS011;23441;50.856;6.076;2023-04-03T06:44:13;10.60;;;5.85;;
37593;SDS011;23441;50.856;6.076;2023-04-03T06:46:40;8.48;;;5.90;;
37593;SDS011;23441;50.856;6.076;2023-04-03T06:49:07;7.82;;;5.95;;
37593;SDS011;23441;50.856;6.076;2023-04-03T06:51:33;9.25;;;5.50;;
37593;SDS011;23441;50.856;6.076;2023-04-03T06:54:00;8.73;;;5.38;;
37593;SDS011;23441;50.856;6.076;2023-04-03T06:56:26;9.10;;;5.05;;
37593;SDS011;23441;50.856;6.076;2023-04-03T06:58:53;7.70;;;5.10;;
37593;SDS011;23441;50.856;6.076;2023-04-03T07:01:22;7.93;;;4.80;;
37593;SDS011;23441;50.856;6.076;2023-04-03T07:03:53;9.55;;;4.63;;
37593;SDS011;23441;50.856;6.076;2023-04-03T07:06:19;8.25;;;4.70;;
37593;SDS011;23441;50.856;6.076;2023-04-03T07:08:45;8.95;;;4.55;;
37593;SDS011;23441;50.856;6.076;2023-04-03T07:11:13;7.32;;;3.75;;
37593;SDS011;23441;50.856;6.076;2023-04-03T07:13:38;6.47;;;3.92;;
37593;SDS011;23441;50.856;6.076;2023-04-03T07:16:05;7.43;;;3.90;;
37593;SDS011;23441;50.856;6.076;2023-04-03T07:18:34;6.53;;;4.35;;
37593;SDS011;23441;50.856;6.076;2023-04-03T07:21:00;5.18;;;3.72;;
37593;SDS011;23441;50.856;6.076;2023-04-03T07:23:26;5.68;;;3.70;;
37593;SDS011;23441;50.856;6.076;2023-04-03T07:25:52;6.28;;;3.40;;
37593;SDS011;23441;50.856;6.076;2023-04-03T07:28:18;8.73;;;3.88;;
37593;SDS011;23441;50.856;6.076;2023-04-03T07:30:46;11.18;;;3.65;;
37593;SDS011;23441;50.856;6.076;2023-04-03T07:33:14;7.45;;;3.97;;
37593;SDS011;23441;50.856;6.076;2023-04-03T07:35:42;6.47;;;3.13;;
37593;SDS011;23441;50.856;6.076;2023-04-03T07:38:08;5.65;;;3.10;;
37593;SDS011;23441;50.856;6.076;2023-04-03T07:40:35;5.25;;;3.20;;
37593;SDS011;23441;50.856;6.076;2023-04-03T07:43:01;6.35;;;3.30;;
37593;SDS011;23441;50.856;6.076;2023-04-03T07:45:27;6.25;;;3.03;;
37593;SDS011;23441;50.856;6.076;2023-04-03T07:47:53;4.25;;;2.70;;
37593;SDS011;23441;50.856;6.076;2023-04-03T07:50:19;5.07;;;3.40;;
37593;SDS011;23441;50.856;6.076;2023-04-03T07:52:45;9.15;;;4.07;;
37593;SDS011;23441;50.856;6.076;2023-04-03T07:55:11;7.78;;;3.63;;
37593;SDS011;23441;50.856;6.076;2023-04-03T07:57:37;5.32;;;2.75;;
37593;SDS011;23441;50.856;6.076;2023-04-03T08:00:03;9.60;;;3.15;;
37593;SDS011;23441;50.856;6.076;2023-04-03T08:02:30;11.88;;;3.38;;
37593;SDS011;23441;50.856;6.076;2023-04-03T08:04:57;5.97;;;3.03;;
37593;SDS011;23441;50.856;6.076;2023-04-03T08:07:24;6.20;;;3.53;;
37593;SDS011;23441;50.856;6.076;2023-04-03T08:09:50;4.75;;;2.80;;
37593;SDS011;23441;50.856;6.076;2023-04-03T08:12:16;8.20;;;3.20;;
37593;SDS011;23441;50.856;6.076;2023-04-03T08:14:41;6.93;;;3.38;;
37593;SDS011;23441;50.856;6.076;2023-04-03T08:17:08;9.15;;;3.85;;
37593;SDS011;23441;50.856;6.076;2023-04-03T08:19:37;5.40;;;3.00;;
37593;SDS011;23441;50.856;6.076;2023-04-03T08:22:03;6.78;;;3.70;;
37593;SDS011;23441;50.856;6.076;2023-04-03T08:24:29;5.57;;;3.05;;
37593;SDS011;23441;50.856;6.076;2023-04-03T08:26:56;9.05;;;3.53;;
37593;SDS011;23441;50.856;6.076;2023-04-03T08:29:22;5.93;;;3.30;;
37593;SDS011;23441;50.856;6.076;2023-04-03T08:31:48;5.22;;;2.95;;
37593;SDS011;23441;50.856;6.076;2023-04-03T08:34:15;7.72;;;3.45;;
37593;SDS011;23441;50.856;6.076;2023-04-03T08:36:41;5.95;;;3.35;;
37593;SDS011;23441;50.856;6.076;2023-04-03T08:39:07;6.53;;;3.33;;
37593;SDS011;23441;50.856;6.076;2023-04-03T08:49:33;5.85;;;3.00;;
37593;SDS011;23441;50.856;6.076;2023-04-03T08:52:12;8.70;;;3.10;;
37593;SDS011;23441;50.856;6.076;2023-04-03T08:54:56;6.85;;;3.15;;
37593;SDS011;23441;50.856;6.076;2023-04-03T08:57:30;7.10;;;3.17;;
37593;SDS011;23441;50.856;6.076;2023-04-03T09:00:00;5.18;;;3.13;;
37593;SDS011;23441;50.856;6.076;2023-04-03T09:02:56;7.97;;;3.42;;
37593;SDS011;23441;50.856;6.076;2023-04-03T09:06:10;4.80;;;2.97;;
37593;SDS011;23441;50.856;6.076;2023-04-03T09:11:07;6.22;;;3.20;;
37593;SDS011;23441;50.856;6.076;2023-04-03T09:16:15;5.80;;;3.17;;
37593;SDS011;23441;50.856;6.076;2023-04-03T09:18:53;5.80;;;2.90;;
37593;SDS011;23441;50.856;6.076;2023-04-03T09:21:35;9.27;;;3.20;;
37593;SDS011;23441;50.856;6.076;2023-04-03T09:24:04;7.75;;;3.60;;
37593;SDS011;23441;50.856;6.076;2023-04-03T09:26:45;6.30;;;3.30;;
37593;SDS011;23441;50.856;6.076;2023-04-03T09:29:24;6.15;;;3.28;;
37593;SDS011;23441;50.856;6.076;2023-04-03T09:31:58;5.80;;;2.75;;
37593;SDS011;23441;50.856;6.076;2023-04-03T09:34:34;5.00;;;2.75;;
37593;SDS011;23441;50.856;6.076;2023-04-03T09:37:02;6.35;;;2.60;;
37593;SDS011;23441;50.856;6.076;2023-04-03T09:39:31;5.82;;;2.80;;
37593;SDS011;23441;50.856;6.076;2023-04-03T09:42:15;7.18;;;3.22;;
37593;SDS011;23441;50.856;6.076;2023-04-03T09:44:53;6.78;;;3.25;;
37593;SDS011;23441;50.856;6.076;2023-04-03T09:47:34;7.45;;;3.58;;
37593;SDS011;23441;50.856;6.076;2023-04-03T09:52:39;8.10;;;3.50;;
37593;SDS011;23441;50.856;6.076;2023-04-03T09:55:17;4.72;;;2.78;;
37593;SDS011;23441;50.856;6.076;2023-04-03T09:57:52;5.20;;;3.13;;
37593;SDS011;23441;50.856;6.076;2023-04-03T10:00:26;5.72;;;2.97;;
37593;SDS011;23441;50.856;6.076;2023-04-03T10:02:56;7.25;;;3.10;;
37593;SDS011;23441;50.856;6.076;2023-04-03T10:10:40;7.25;;;3.15;;
37593;SDS011;23441;50.856;6.076;2023-04-03T10:13:11;7.13;;;2.67;;
37593;SDS011;23441;50.856;6.076;2023-04-03T10:15:48;11.10;;;2.80;;
37593;SDS011;23441;50.856;6.076;2023-04-03T10:21:15;8.85;;;2.60;;
37593;SDS011;23441;50.856;6.076;2023-04-03T10:23:56;6.97;;;2.47;;
37593;SDS011;23441;50.856;6.076;2023-04-03T10:41:11;2.75;;;1.80;;
37593;SDS011;23441;50.856;6.076;2023-04-03T10:43:45;3.72;;;1.75;;
37593;SDS011;23441;50.856;6.076;2023-04-03T10:46:38;3.33;;;1.65;;
37593;SDS011;23441;50.856;6.076;2023-04-03T10:52:20;3.78;;;1.73;;
37593;SDS011;23441;50.856;6.076;2023-04-03T10:57:27;2.72;;;1.30;;
37593;SDS011;23441;50.856;6.076;2023-04-03T11:00:37;1.85;;;1.30;;
37593;SDS011;23441;50.856;6.076;2023-04-03T11:02:52;3.10;;;1.55;;
37593;SDS011;23441;50.856;6.076;2023-04-03T11:05:32;3.25;;;1.75;;
37593;SDS011;23441;50.856;6.076;2023-04-03T11:08:05;4.25;;;1.77;;
37593;SDS011;23441;50.856;6.076;2023-04-03T11:10:40;5.28;;;1.98;;
37593;SDS011;23441;50.856;6.076;2023-04-03T11:13:11;6.65;;;1.60;;
37593;SDS011;23441;50.856;6.076;2023-04-03T11:15:40;6.95;;;1.75;;
37593;SDS011;23441;50.856;6.076;2023-04-03T11:18:11;3.03;;;1.75;;
37593;SDS011;23441;50.856;6.076;2023-04-03T11:21:03;3.63;;;1.70;;
37593;SDS011;23441;50.856;6.076;2023-04-03T11:23:39;4.13;;;1.80;;
37593;SDS011;23441;50.856;6.076;2023-04-03T11:26:10;4.05;;;1.55;;
37593;SDS011;23441;50.856;6.076;2023-04-03T11:28:37;2.65;;;1.70;;
37593;SDS011;23441;50.856;6.076;2023-04-03T11:36:33;2.88;;;1.40;;
37593;SDS011;23441;50.856;6.076;2023-04-03T11:39:15;3.38;;;1.65;;
37593;SDS011;23441;50.856;6.076;2023-04-03T11:41:50;7.03;;;1.40;;
37593;SDS011;23441;50.856;6.076;2023-04-03T11:44:36;6.78;;;1.63;;
37593;SDS011;23441;50.856;6.076;2023-04-03T11:47:04;4.45;;;1.77;;
37593;SDS011;23441;50.856;6.076;2023-04-03T12:05:51;6.57;;;1.88;;
37593;SDS011;23441;50.856;6.076;2023-04-03T12:29:51;4.45;;;1.90;;
37593;SDS011;23441;50.856;6.076;2023-04-03T12:35:17;5.20;;;1.52;;
37593;SDS011;23441;50.856;6.076;2023-04-03T12:48:56;4.78;;;1.77;;
37593;SDS011;23441;50.856;6.076;2023-04-03T12:56:48;7.18;;;1.70;;
37593;SDS011;23441;50.856;6.076;2023-04-03T12:59:22;3.40;;;1.63;;
37593;SDS011;23441;50.856;6.076;2023-04-03T13:01:56;3.75;;;1.80;;
37593;SDS011;23441;50.856;6.076;2023-04-03T13:04:24;2.00;;;1.15;;
37593;SDS011;23441;50.856;6.076;2023-04-03T13:06:51;2.60;;;1.30;;
37593;SDS011;23441;50.856;6.076;2023-04-03T13:09:24;3.92;;;1.70;;
37593;SDS011;23441;50.856;6.076;2023-04-03T13:14:38;6.68;;;1.50;;
37593;SDS011;23441;50.856;6.076;2023-04-03T13:19:37;5.00;;;1.45;;
37593;SDS011;23441;50.856;6.076;2023-04-03T13:22:07;3.50;;;1.30;;
37593;SDS011;23441;50.856;6.076;2023-04-03T13:24:47;3.13;;;1.80;;
37593;SDS011;23441;50.856;6.076;2023-04-03T13:27:16;3.45;;;1.50;;
37593;SDS011;23441;50.856;6.076;2023-04-03T13:29:43;1.83;;;1.48;;
37593;SDS011;23441;50.856;6.076;2023-04-03T13:32:17;2.00;;;1.45;;
37593;SDS011;23441;50.856;6.076;2023-04-03T13:34:48;4.50;;;1.38;;
37593;SDS011;23441;50.856;6.076;2023-04-03T13:39:55;3.03;;;1.58;;
37593;SDS011;23441;50.856;6.076;2023-04-03T13:42:29;1.73;;;1.30;;
37593;SDS011;23441;50.856;6.076;2023-04-03T13:48:10;2.28;;;1.42;;
37593;SDS011;23441;50.856;6.076;2023-04-03T13:51:04;4.40;;;1.63;;
37593;SDS011;23441;50.856;6.076;2023-04-03T13:58:55;4.03;;;1.42;;
37593;SDS011;23441;50.856;6.076;2023-04-03T14:04:18;2.05;;;1.23;;
37593;SDS011;23441;50.856;6.076;2023-04-03T14:06:48;4.38;;;1.65;;
37593;SDS011;23441;50.856;6.076;2023-04-03T14:09:16;2.90;;;1.55;;
37593;SDS011;23441;50.856;6.076;2023-04-03T14:11:43;3.05;;;1.42;;
37593;SDS011;23441;50.856;6.076;2023-04-03T14:14:29;2.83;;;1.50;;
37593;SDS011;23441;50.856;6.076;2023-04-03T14:16:58;6.25;;;1.38;;
37593;SDS011;23441;50.856;6.076;2023-04-03T14:19:26;1.75;;;1.50;;
37593;SDS011;23441;50.856;6.076;2023-04-03T14:21:54;2.03;;;1.20;;
37593;SDS011;23441;50.856;6.076;2023-04-03T14:24:21;1.58;;;1.30;;
37593;SDS011;23441;50.856;6.076;2023-04-03T14:26:48;4.18;;;1.45;;
37593;SDS011;23441;50.856;6.076;2023-04-03T14:29:15;4.00;;;1.20;;
37593;SDS011;23441;50.856;6.076;2023-04-03T14:31:42;3.70;;;1.48;;
37593;SDS011;23441;50.856;6.076;2023-04-03T14:34:12;3.63;;;1.30;;
37593;SDS011;23441;50.856;6.076;2023-04-03T14:36:40;3.42;;;1.20;;
37593;SDS011;23441;50.856;6.076;2023-04-03T14:39:10;2.28;;;1.27;;
37593;SDS011;23441;50.856;6.076;2023-04-03T14:41:42;2.75;;;1.30;;
37593;SDS011;23441;50.856;6.076;2023-04-03T14:44:08;3.97;;;1.33;;
37593;SDS011;23441;50.856;6.076;2023-04-03T14:46:38;2.55;;;1.20;;
37593;SDS011;23441;50.856;6.076;2023-04-03T14:49:12;2.53;;;1.20;;
37593;SDS011;23441;50.856;6.076;2023-04-03T14:51:41;2.13;;;1.35;;
37593;SDS011;23441;50.856;6.076;2023-04-03T14:54:10;2.92;;;1.23;;
37593;SDS011;23441;50.856;6.076;2023-04-03T14:56:40;2.55;;;1.15;;
37593;SDS011;23441;50.856;6.076;2023-04-03T14:59:08;4.00;;;1.33;;
37593;SDS011;23441;50.856;6.076;2023-04-03T15:01:36;2.83;;;1.23;;
37593;SDS011;23441;50.856;6.076;2023-04-03T15:04:05;3.70;;;1.50;;
37593;SDS011;23441;50.856;6.076;2023-04-03T15:06:43;2.83;;;1.13;;
37593;SDS011;23441;50.856;6.076;2023-04-03T15:09:14;1.95;;;1.10;;
37593;SDS011;23441;50.856;6.076;2023-04-03T15:11:46;3.33;;;1.38;;
37593;SDS011;23441;50.856;6.076;2023-04-03T15:14:12;2.35;;;1.35;;
37593;SDS011;23441;50.856;6.076;2023-04-03T15:16:38;2.22;;;1.38;;
37593;SDS011;23441;50.856;6.076;2023-04-03T15:19:03;2.75;;;1.40;;
37593;SDS011;23441;50.856;6.076;2023-04-03T15:21:30;2.65;;;1.20;;
37593;SDS011;23441;50.856;6.076;2023-04-03T15:23:56;2.00;;;1.38;;
37593;SDS011;23441;50.856;6.076;2023-04-03T15:26:21;3.20;;;1.42;;
37593;SDS011;23441;50.856;6.076;2023-04-03T15:28:47;2.95;;;1.38;;
37593;SDS011;23441;50.856;6.076;2023-04-03T15:31:13;1.67;;;1.42;;
37593;SDS011;23441;50.856;6.076;2023-04-03T15:33:39;1.83;;;1.20;;
37593;SDS011;23441;50.856;6.076;2023-04-03T15:36:05;5.63;;;1.88;;
37593;SDS011;23441;50.856;6.076;2023-04-03T15:38:30;3.08;;;1.50;;
37593;SDS011;23441;50.856;6.076;2023-04-03T15:40:56;3.72;;;1.65;;
37593;SDS011;23441;50.856;6.076;2023-04-03T15:43:22;2.88;;;1.75;;
37593;SDS011;23441;50.856;6.076;2023-04-03T15:45:48;3.78;;;1.77;;
37593;SDS011;23441;50.856;6.076;2023-04-03T15:48:15;3.78;;;1.73;;
37593;SDS011;23441;50.856;6.076;2023-04-03T15:50:41;2.95;;;1.65;;
37593;SDS011;23441;50.856;6.076;2023-04-03T15:53:08;4.10;;;1.50;;
37593;SDS011;23441;50.856;6.076;2023-04-03T15:55:35;1.83;;;1.50;;
37593;SDS011;23441;50.856;6.076;2023-04-03T15:58:02;2.25;;;1.38;;
37593;SDS011;23441;50.856;6.076;2023-04-03T16:00:28;5.40;;;2.25;;
37593;SDS011;23441;50.856;6.076;2023-04-03T16:03:27;4.65;;;1.48;;
37593;SDS011;23441;50.856;6.076;2023-04-03T16:05:47;4.65;;;1.50;;
37593;SDS011;23441;50.856;6.076;2023-04-03T16:08:14;3.40;;;1.58;;
37593;SDS011;23441;50.856;6.076;2023-04-03T16:10:40;3.05;;;1.30;;
37593;SDS011;23441;50.856;6.076;2023-04-03T16:13:06;2.63;;;1.40;;
37593;SDS011;23441;50.856;6.076;2023-04-03T16:15:32;5.03;;;1.65;;
37593;SDS011;23441;50.856;6.076;2023-04-03T16:17:59;2.85;;;1.40;;
37593;SDS011;23441;50.856;6.076;2023-04-03T16:20:25;3.33;;;1.75;;
37593;SDS011;23441;50.856;6.076;2023-04-03T16:22:52;3.92;;;1.60;;
37593;SDS011;23441;50.856;6.076;2023-04-03T16:25:18;3.58;;;1.40;;
37593;SDS011;23441;50.856;6.076;2023-04-03T16:27:44;2.63;;;1.70;;
37593;SDS011;23441;50.856;6.076;2023-04-03T16:30:10;4.15;;;1.67;;
37593;SDS011;23441;50.856;6.076;2023-04-03T16:32:36;3.13;;;1.60;;
37593;SDS011;23441;50.856;6.076;2023-04-03T16:35:03;3.47;;;1.67;;
37593;SDS011;23441;50.856;6.076;2023-04-03T16:37:30;3.83;;;2.00;;
37593;SDS011;23441;50.856;6.076;2023-04-03T16:39:56;6.00;;;1.90;;
37593;SDS011;23441;50.856;6.076;2023-04-03T16:42:23;11.18;;;2.17;;
37593;SDS011;23441;50.856;6.076;2023-04-03T16:44:49;3.60;;;2.08;;
37593;SDS011;23441;50.856;6.076;2023-04-03T16:47:15;4.22;;;1.65;;
37593;SDS011;23441;50.856;6.076;2023-04-03T16:49:44;7.85;;;1.83;;
37593;SDS011;23441;50.856;6.076;2023-04-03T16:52:10;4.63;;;1.83;;
37593;SDS011;23441;50.856;6.076;2023-04-03T16:54:36;5.20;;;1.60;;
37593;SDS011;23441;50.856;6.076;2023-04-03T16:57:02;5.57;;;1.75;;
37593;SDS011;23441;50.856;6.076;2023-04-03T16:59:27;3.22;;;1.70;;
37593;SDS011;23441;50.856;6.076;2023-04-03T17:01:53;7.82;;;1.63;;
37593;SDS011;23441;50.856;6.076;2023-04-03T17:04:19;4.60;;;1.67;;
37593;SDS011;23441;50.856;6.076;2023-04-03T17:06:45;4.88;;;1.85;;